DLH8PN ENGM-EDDM
Flight info
| Callsign | DLH8PN |
|---|---|
| Flight time | 2h 1m |
| Altitude | 37000 |
| Route | OKSAT L996 KELIN DCT NEDIK DCT SODRO/N0421F310 T703 LULAR/N0417F300 T105 LANDU LANDU2A |
| Aircraft | A321/M-SDE2E3FGIJ1LORWXYZ/HB1 |
Departure
| Time | 2026-05-06 13:21 |
|---|---|
| Airport | Oslo-Gardermoen International Airport (ENGM) |
Arrival
| Time | 2026-05-06 15:22 |
|---|---|
| Airport | Munich Airport (EDDM) |
| Time | Latitude | Longitude | Altitude | Speed | Heading |
|---|---|---|---|---|---|
| 2026-05-06 12:47 | 60.19594 | 11.09916 | 685 ft | 0 kts | 106° |
| 2026-05-06 13:05 | 60.19595 | 11.09916 | 685 ft | 0 kts | 106° |
| 2026-05-06 13:09 | 60.19595 | 11.09915 | 685 ft | 0 kts | 106° |
| 2026-05-06 13:10 | 60.19595 | 11.09909 | 685 ft | 1 kts | 106° |
| 2026-05-06 13:10 | 60.19597 | 11.09902 | 685 ft | 0 kts | 106° |
| 2026-05-06 13:11 | 60.19600 | 11.09879 | 679 ft | 2 kts | 106° |
| 2026-05-06 13:11 | 60.19603 | 11.09861 | 685 ft | 0 kts | 106° |
| 2026-05-06 13:11 | 60.19603 | 11.09856 | 683 ft | 2 kts | 106° |
| 2026-05-06 13:11 | 60.19608 | 11.09825 | 679 ft | 2 kts | 112° |
| 2026-05-06 13:12 | 60.19614 | 11.09795 | 681 ft | 2 kts | 114° |
| 2026-05-06 13:12 | 60.19622 | 11.09766 | 679 ft | 2 kts | 131° |
| 2026-05-06 13:12 | 60.19633 | 11.09743 | 677 ft | 2 kts | 150° |
| 2026-05-06 13:12 | 60.19648 | 11.09730 | 683 ft | 2 kts | 172° |
| 2026-05-06 13:13 | 60.19664 | 11.09736 | 681 ft | 2 kts | 202° |
| 2026-05-06 13:13 | 60.19668 | 11.09740 | 683 ft | 0 kts | 202° |
| 2026-05-06 13:15 | 60.19665 | 11.09737 | 681 ft | 1 kts | 203° |
| 2026-05-06 13:15 | 60.19656 | 11.09721 | 681 ft | 4 kts | 225° |
| 2026-05-06 13:15 | 60.19648 | 11.09654 | 680 ft | 7 kts | 277° |
| 2026-05-06 13:15 | 60.19660 | 11.09545 | 683 ft | 9 kts | 283° |
| 2026-05-06 13:16 | 60.19675 | 11.09411 | 683 ft | 11 kts | 285° |
| 2026-05-06 13:16 | 60.19699 | 11.09255 | 683 ft | 12 kts | 290° |
| 2026-05-06 13:16 | 60.19727 | 11.09080 | 682 ft | 14 kts | 286° |
| 2026-05-06 13:16 | 60.19757 | 11.08863 | 677 ft | 19 kts | 284° |
| 2026-05-06 13:17 | 60.19848 | 11.08716 | 679 ft | 17 kts | 358° |
| 2026-05-06 13:17 | 60.19966 | 11.08782 | 678 ft | 18 kts | 15° |
| 2026-05-06 13:17 | 60.20090 | 11.08854 | 678 ft | 19 kts | 16° |
| 2026-05-06 13:17 | 60.20222 | 11.08932 | 681 ft | 20 kts | 16° |
| 2026-05-06 13:18 | 60.20363 | 11.09012 | 682 ft | 21 kts | 16° |
| 2026-05-06 13:18 | 60.20508 | 11.09096 | 682 ft | 23 kts | 17° |
| 2026-05-06 13:18 | 60.20663 | 11.09186 | 683 ft | 24 kts | 16° |
| 2026-05-06 13:18 | 60.20824 | 11.09278 | 681 ft | 24 kts | 16° |
| 2026-05-06 13:19 | 60.20988 | 11.09374 | 686 ft | 25 kts | 16° |
| 2026-05-06 13:19 | 60.21157 | 11.09472 | 687 ft | 26 kts | 16° |
| 2026-05-06 13:19 | 60.21332 | 11.09571 | 687 ft | 27 kts | 15° |
| 2026-05-06 13:19 | 60.21468 | 11.09647 | 686 ft | 16 kts | 9° |
| 2026-05-06 13:20 | 60.21548 | 11.09495 | 684 ft | 18 kts | 288° |
| 2026-05-06 13:20 | 60.21580 | 11.09240 | 684 ft | 18 kts | 264° |
| 2026-05-06 13:20 | 60.21486 | 11.09096 | 684 ft | 19 kts | 197° |
| 2026-05-06 13:20 | 60.21318 | 11.08998 | 683 ft | 37 kts | 195° |
| 2026-05-06 13:21 | 60.20821 | 11.08716 | 680 ft | 111 kts | 195° |
| 2026-05-06 13:21 | 60.19871 | 11.08174 | 731 ft | 164 kts | 194° |
| 2026-05-06 13:21 | 60.18795 | 11.07513 | 1563 ft | 162 kts | 199° |
| 2026-05-06 13:21 | 60.17710 | 11.06804 | 2367 ft | 167 kts | 200° |
| 2026-05-06 13:22 | 60.16632 | 11.05843 | 2872 ft | 179 kts | 221° |
| 2026-05-06 13:22 | 60.15919 | 11.03682 | 3409 ft | 191 kts | 246° |
| 2026-05-06 13:22 | 60.15397 | 11.01086 | 3838 ft | 210 kts | 248° |
| 2026-05-06 13:22 | 60.14811 | 10.98326 | 4108 ft | 229 kts | 247° |
| 2026-05-06 13:23 | 60.14157 | 10.95200 | 4312 ft | 254 kts | 256° |
| 2026-05-06 13:23 | 60.14241 | 10.91665 | 5046 ft | 261 kts | 286° |
| 2026-05-06 13:23 | 60.14780 | 10.88201 | 6045 ft | 260 kts | 285° |
| 2026-05-06 13:23 | 60.15314 | 10.84732 | 6925 ft | 263 kts | 294° |
| 2026-05-06 13:24 | 60.16368 | 10.81689 | 7725 ft | 270 kts | 316° |
| 2026-05-06 13:24 | 60.17938 | 10.79753 | 8599 ft | 275 kts | 339° |
| 2026-05-06 13:24 | 60.19834 | 10.79252 | 9518 ft | 279 kts | 4° |
| 2026-05-06 13:24 | 60.21685 | 10.80256 | 10323 ft | 286 kts | 22° |
| 2026-05-06 13:25 | 60.23424 | 10.82520 | 10595 ft | 311 kts | 40° |
| 2026-05-06 13:25 | 60.24861 | 10.85946 | 10962 ft | 331 kts | 57° |
| 2026-05-06 13:25 | 60.25968 | 10.90188 | 11120 ft | 355 kts | 64° |
| 2026-05-06 13:25 | 60.26954 | 10.94842 | 11661 ft | 363 kts | 68° |
| 2026-05-06 13:26 | 60.27690 | 10.99744 | 12243 ft | 372 kts | 82° |
| 2026-05-06 13:26 | 60.27653 | 11.04987 | 12808 ft | 378 kts | 101° |
| 2026-05-06 13:26 | 60.26894 | 11.10074 | 13380 ft | 382 kts | 117° |
| 2026-05-06 13:26 | 60.25476 | 11.14557 | 13986 ft | 380 kts | 135° |
| 2026-05-06 13:27 | 60.23527 | 11.17965 | 14563 ft | 375 kts | 154° |
| 2026-05-06 13:27 | 60.21214 | 11.20202 | 15137 ft | 375 kts | 160° |
| 2026-05-06 13:27 | 60.18902 | 11.22710 | 15797 ft | 380 kts | 155° |
| 2026-05-06 13:27 | 60.16634 | 11.25514 | 16412 ft | 386 kts | 153° |
| 2026-05-06 13:28 | 60.14370 | 11.28463 | 17029 ft | 390 kts | 153° |
| 2026-05-06 13:28 | 60.12084 | 11.31434 | 17660 ft | 393 kts | 154° |
| 2026-05-06 13:28 | 60.09760 | 11.34381 | 18254 ft | 397 kts | 155° |
| 2026-05-06 13:28 | 60.07400 | 11.37287 | 18748 ft | 399 kts | 156° |
| 2026-05-06 13:29 | 60.05014 | 11.40156 | 19263 ft | 402 kts | 156° |
| 2026-05-06 13:29 | 60.02631 | 11.42976 | 19780 ft | 405 kts | 157° |
| 2026-05-06 13:29 | 60.00198 | 11.45839 | 20291 ft | 407 kts | 157° |
| 2026-05-06 13:29 | 59.97747 | 11.48717 | 20792 ft | 410 kts | 158° |
| 2026-05-06 13:30 | 59.95191 | 11.51035 | 21280 ft | 398 kts | 172° |
| 2026-05-06 13:30 | 59.92503 | 11.52118 | 21790 ft | 394 kts | 179° |
| 2026-05-06 13:30 | 59.89795 | 11.53029 | 22319 ft | 395 kts | 179° |
| 2026-05-06 13:30 | 59.87077 | 11.53921 | 22849 ft | 397 kts | 179° |
| 2026-05-06 13:31 | 59.84344 | 11.54810 | 23345 ft | 399 kts | 179° |
| 2026-05-06 13:31 | 59.81628 | 11.55698 | 23789 ft | 402 kts | 179° |
| 2026-05-06 13:31 | 59.78865 | 11.56607 | 24203 ft | 404 kts | 179° |
| 2026-05-06 13:31 | 59.76091 | 11.57529 | 24633 ft | 405 kts | 179° |
| 2026-05-06 13:32 | 59.73307 | 11.58456 | 25061 ft | 407 kts | 179° |
| 2026-05-06 13:32 | 59.70511 | 11.59384 | 25487 ft | 408 kts | 179° |
| 2026-05-06 13:32 | 59.67706 | 11.60309 | 25904 ft | 410 kts | 179° |
| 2026-05-06 13:32 | 59.64890 | 11.61232 | 26332 ft | 411 kts | 179° |
| 2026-05-06 13:33 | 59.62058 | 11.62154 | 26740 ft | 413 kts | 179° |
| 2026-05-06 13:33 | 59.59217 | 11.63071 | 27155 ft | 414 kts | 179° |
| 2026-05-06 13:33 | 59.56369 | 11.63990 | 27553 ft | 416 kts | 179° |
| 2026-05-06 13:33 | 59.53542 | 11.64905 | 27952 ft | 418 kts | 179° |
| 2026-05-06 13:34 | 59.50666 | 11.65839 | 28326 ft | 420 kts | 179° |
| 2026-05-06 13:34 | 59.47783 | 11.66777 | 28683 ft | 421 kts | 179° |
| 2026-05-06 13:34 | 59.44884 | 11.67717 | 29029 ft | 423 kts | 179° |
| 2026-05-06 13:34 | 59.41977 | 11.68667 | 29350 ft | 424 kts | 179° |
| 2026-05-06 13:35 | 59.39056 | 11.69619 | 29654 ft | 426 kts | 179° |
| 2026-05-06 13:35 | 59.36138 | 11.70569 | 30074 ft | 424 kts | 179° |
| 2026-05-06 13:35 | 59.33235 | 11.71510 | 30429 ft | 423 kts | 179° |
| 2026-05-06 13:35 | 59.30333 | 11.72441 | 30778 ft | 422 kts | 179° |
| 2026-05-06 13:36 | 59.27476 | 11.73356 | 31111 ft | 421 kts | 179° |
| 2026-05-06 13:36 | 59.24588 | 11.74276 | 31447 ft | 420 kts | 179° |
| 2026-05-06 13:36 | 59.21703 | 11.75195 | 31772 ft | 420 kts | 179° |
| 2026-05-06 13:36 | 59.18821 | 11.76110 | 32107 ft | 419 kts | 179° |
| 2026-05-06 13:37 | 59.15949 | 11.77024 | 32451 ft | 418 kts | 179° |
| 2026-05-06 13:37 | 59.13079 | 11.77941 | 32785 ft | 417 kts | 179° |
| 2026-05-06 13:37 | 59.10216 | 11.78856 | 33122 ft | 417 kts | 179° |
| 2026-05-06 13:37 | 59.07362 | 11.79767 | 33442 ft | 416 kts | 179° |
| 2026-05-06 13:38 | 59.04509 | 11.80674 | 33761 ft | 415 kts | 179° |
| 2026-05-06 13:38 | 59.01698 | 11.81562 | 34051 ft | 414 kts | 179° |
| 2026-05-06 13:38 | 58.98856 | 11.82457 | 34286 ft | 415 kts | 179° |
| 2026-05-06 13:38 | 58.96001 | 11.83351 | 34488 ft | 416 kts | 179° |
| 2026-05-06 13:39 | 58.93142 | 11.84238 | 34694 ft | 417 kts | 178° |
| 2026-05-06 13:39 | 58.90279 | 11.85122 | 34896 ft | 418 kts | 178° |
| 2026-05-06 13:39 | 58.87407 | 11.86010 | 35095 ft | 419 kts | 178° |
| 2026-05-06 13:39 | 58.84526 | 11.86913 | 35292 ft | 420 kts | 178° |
| 2026-05-06 13:40 | 58.81638 | 11.87832 | 35487 ft | 421 kts | 178° |
| 2026-05-06 13:40 | 58.78744 | 11.88746 | 35687 ft | 422 kts | 178° |
| 2026-05-06 13:40 | 58.75880 | 11.89637 | 35880 ft | 423 kts | 178° |
| 2026-05-06 13:40 | 58.72976 | 11.90535 | 36081 ft | 424 kts | 178° |
| 2026-05-06 13:41 | 58.70063 | 11.91430 | 36270 ft | 425 kts | 178° |
| 2026-05-06 13:41 | 58.67140 | 11.92333 | 36450 ft | 426 kts | 177° |
| 2026-05-06 13:41 | 58.64215 | 11.93238 | 36640 ft | 426 kts | 177° |
| 2026-05-06 13:41 | 58.61285 | 11.94146 | 36803 ft | 427 kts | 177° |
| 2026-05-06 13:42 | 58.58345 | 11.95054 | 36929 ft | 428 kts | 177° |
| 2026-05-06 13:42 | 58.52493 | 11.96862 | 36951 ft | 429 kts | 177° |
| 2026-05-06 13:43 | 58.46599 | 11.98675 | 36943 ft | 429 kts | 177° |
| 2026-05-06 13:43 | 58.40703 | 12.00469 | 36948 ft | 429 kts | 177° |
| 2026-05-06 13:44 | 58.34812 | 12.02248 | 36949 ft | 429 kts | 177° |
| 2026-05-06 13:44 | 58.28921 | 12.04039 | 36944 ft | 429 kts | 177° |
| 2026-05-06 13:45 | 58.23067 | 12.05427 | 36940 ft | 422 kts | 186° |
| 2026-05-06 13:45 | 58.14248 | 12.05436 | 36952 ft | 423 kts | 185° |
| 2026-05-06 13:46 | 58.08362 | 12.05470 | 36957 ft | 423 kts | 185° |
| 2026-05-06 13:46 | 58.02521 | 12.05491 | 36969 ft | 423 kts | 185° |
| 2026-05-06 13:47 | 57.96634 | 12.05505 | 36972 ft | 423 kts | 185° |
| 2026-05-06 13:47 | 57.90752 | 12.05529 | 36976 ft | 423 kts | 185° |
| 2026-05-06 13:48 | 57.84866 | 12.05546 | 36983 ft | 423 kts | 185° |
| 2026-05-06 13:48 | 57.79020 | 12.05561 | 36986 ft | 423 kts | 185° |
| 2026-05-06 13:49 | 57.73133 | 12.05577 | 36984 ft | 423 kts | 185° |
| 2026-05-06 13:49 | 57.67247 | 12.05593 | 36933 ft | 423 kts | 185° |
| 2026-05-06 13:50 | 57.61359 | 12.05602 | 36934 ft | 423 kts | 185° |
| 2026-05-06 13:50 | 57.55476 | 12.05609 | 36936 ft | 423 kts | 185° |
| 2026-05-06 13:51 | 57.49627 | 12.05632 | 36943 ft | 423 kts | 185° |
| 2026-05-06 13:51 | 57.43739 | 12.05663 | 36948 ft | 423 kts | 185° |
| 2026-05-06 13:52 | 57.37851 | 12.05688 | 36955 ft | 423 kts | 185° |
| 2026-05-06 13:52 | 57.31962 | 12.05705 | 36956 ft | 423 kts | 185° |
| 2026-05-06 13:53 | 57.26108 | 12.05718 | 36960 ft | 423 kts | 184° |
| 2026-05-06 13:53 | 57.20215 | 12.05738 | 36961 ft | 424 kts | 184° |
| 2026-05-06 13:54 | 57.14318 | 12.05757 | 36958 ft | 424 kts | 184° |
| 2026-05-06 13:54 | 57.08461 | 12.05775 | 36962 ft | 424 kts | 184° |
| 2026-05-06 13:55 | 57.02556 | 12.05784 | 36959 ft | 424 kts | 184° |
| 2026-05-06 13:55 | 56.96655 | 12.05802 | 36953 ft | 424 kts | 184° |
| 2026-05-06 13:56 | 56.90752 | 12.05815 | 36957 ft | 424 kts | 184° |
| 2026-05-06 13:56 | 56.84893 | 12.05835 | 36956 ft | 424 kts | 184° |
| 2026-05-06 13:57 | 56.78992 | 12.05865 | 36952 ft | 424 kts | 184° |
| 2026-05-06 13:57 | 56.73088 | 12.05880 | 36952 ft | 425 kts | 184° |
| 2026-05-06 13:58 | 56.67175 | 12.05903 | 36953 ft | 425 kts | 184° |
| 2026-05-06 13:58 | 56.61299 | 12.05920 | 36951 ft | 425 kts | 184° |
| 2026-05-06 13:59 | 56.55383 | 12.05938 | 36951 ft | 425 kts | 184° |
| 2026-05-06 13:59 | 56.49465 | 12.05958 | 36946 ft | 425 kts | 184° |
| 2026-05-06 14:00 | 56.43541 | 12.05974 | 36944 ft | 426 kts | 184° |
| 2026-05-06 14:00 | 56.37648 | 12.05989 | 36948 ft | 426 kts | 184° |
| 2026-05-06 14:01 | 56.31715 | 12.06003 | 36946 ft | 427 kts | 184° |
| 2026-05-06 14:01 | 56.25773 | 12.06015 | 36949 ft | 427 kts | 184° |
| 2026-05-06 14:02 | 56.19830 | 12.06031 | 36953 ft | 427 kts | 184° |
| 2026-05-06 14:02 | 56.13918 | 12.06048 | 36949 ft | 428 kts | 184° |
| 2026-05-06 14:03 | 56.07969 | 12.06062 | 36944 ft | 427 kts | 183° |
| 2026-05-06 14:03 | 56.02023 | 12.06085 | 36960 ft | 427 kts | 183° |
| 2026-05-06 14:04 | 55.97083 | 12.06106 | 36955 ft | 427 kts | 183° |
| 2026-05-06 14:04 | 55.90174 | 12.06118 | 36952 ft | 427 kts | 183° |
| 2026-05-06 14:05 | 55.84233 | 12.06137 | 36954 ft | 427 kts | 183° |
| 2026-05-06 14:05 | 55.78293 | 12.06147 | 36956 ft | 427 kts | 183° |
| 2026-05-06 14:06 | 55.73347 | 12.06154 | 36959 ft | 427 kts | 183° |
| 2026-05-06 14:06 | 55.67404 | 12.06175 | 36961 ft | 427 kts | 183° |
| 2026-05-06 14:07 | 55.60488 | 12.06187 | 36962 ft | 428 kts | 183° |
| 2026-05-06 14:07 | 55.55535 | 12.06192 | 36959 ft | 428 kts | 183° |
| 2026-05-06 14:08 | 55.49577 | 12.06218 | 36962 ft | 428 kts | 182° |
| 2026-05-06 14:08 | 55.42654 | 12.06243 | 36957 ft | 428 kts | 182° |
| 2026-05-06 14:09 | 55.37700 | 12.06257 | 36953 ft | 428 kts | 182° |
| 2026-05-06 14:09 | 55.31737 | 12.06279 | 36950 ft | 429 kts | 182° |
| 2026-05-06 14:10 | 55.25771 | 12.06295 | 36949 ft | 429 kts | 182° |
| 2026-05-06 14:10 | 55.19799 | 12.06317 | 36949 ft | 429 kts | 182° |
| 2026-05-06 14:11 | 55.13864 | 12.06345 | 36945 ft | 429 kts | 182° |
| 2026-05-06 14:11 | 55.07889 | 12.06353 | 36943 ft | 430 kts | 182° |
| 2026-05-06 14:12 | 55.01904 | 12.06366 | 36944 ft | 430 kts | 182° |
| 2026-05-06 14:12 | 54.95921 | 12.06375 | 36941 ft | 430 kts | 182° |
| 2026-05-06 14:13 | 54.89987 | 12.06387 | 36935 ft | 429 kts | 182° |
| 2026-05-06 14:13 | 54.84009 | 12.06405 | 36938 ft | 430 kts | 182° |
| 2026-05-06 14:14 | 54.78031 | 12.06419 | 36929 ft | 430 kts | 182° |
| 2026-05-06 14:14 | 54.72055 | 12.06435 | 36929 ft | 430 kts | 182° |
| 2026-05-06 14:15 | 54.66112 | 12.06453 | 36924 ft | 430 kts | 182° |
| 2026-05-06 14:15 | 54.60131 | 12.06470 | 36920 ft | 430 kts | 182° |
| 2026-05-06 14:16 | 54.54149 | 12.06393 | 36916 ft | 430 kts | 184° |
| 2026-05-06 14:16 | 54.48177 | 12.05992 | 36913 ft | 430 kts | 185° |
| 2026-05-06 14:17 | 54.42204 | 12.05516 | 36908 ft | 430 kts | 185° |
| 2026-05-06 14:17 | 54.36264 | 12.05098 | 36904 ft | 430 kts | 184° |
| 2026-05-06 14:18 | 54.30272 | 12.04732 | 36903 ft | 431 kts | 184° |
| 2026-05-06 14:18 | 54.24283 | 12.04381 | 36900 ft | 431 kts | 184° |
| 2026-05-06 14:19 | 54.18288 | 12.04015 | 36890 ft | 431 kts | 184° |
| 2026-05-06 14:19 | 54.12330 | 12.03645 | 36891 ft | 431 kts | 184° |
| 2026-05-06 14:20 | 54.06334 | 12.03275 | 36884 ft | 431 kts | 184° |
| 2026-05-06 14:20 | 54.00336 | 12.02899 | 36889 ft | 431 kts | 184° |
| 2026-05-06 14:21 | 53.94334 | 12.02531 | 36885 ft | 431 kts | 184° |
| 2026-05-06 14:21 | 53.88335 | 12.02154 | 36885 ft | 431 kts | 185° |
| 2026-05-06 14:22 | 53.82375 | 12.01786 | 36879 ft | 431 kts | 184° |
| 2026-05-06 14:22 | 53.76377 | 12.01419 | 36878 ft | 432 kts | 184° |
| 2026-05-06 14:23 | 53.70370 | 12.01063 | 36872 ft | 432 kts | 184° |
| 2026-05-06 14:23 | 53.64369 | 12.00692 | 36876 ft | 432 kts | 185° |
| 2026-05-06 14:24 | 53.58401 | 12.00323 | 36868 ft | 432 kts | 185° |
| 2026-05-06 14:24 | 53.52392 | 11.99962 | 36865 ft | 432 kts | 185° |
| 2026-05-06 14:25 | 53.46387 | 11.99601 | 36862 ft | 432 kts | 185° |
| 2026-05-06 14:25 | 53.40376 | 11.99244 | 36861 ft | 432 kts | 185° |
| 2026-05-06 14:26 | 53.34405 | 11.98893 | 36860 ft | 432 kts | 185° |
| 2026-05-06 14:26 | 53.28399 | 11.98531 | 36859 ft | 432 kts | 185° |
| 2026-05-06 14:27 | 53.22391 | 11.98162 | 36856 ft | 432 kts | 185° |
| 2026-05-06 14:27 | 53.16389 | 11.97810 | 36861 ft | 431 kts | 185° |
| 2026-05-06 14:28 | 53.10435 | 11.97461 | 36854 ft | 431 kts | 185° |
| 2026-05-06 14:28 | 53.04442 | 11.97105 | 36852 ft | 431 kts | 185° |
| 2026-05-06 14:29 | 52.98457 | 11.96752 | 36846 ft | 430 kts | 185° |
| 2026-05-06 14:29 | 52.92469 | 11.96402 | 36842 ft | 431 kts | 185° |
| 2026-05-06 14:30 | 52.86520 | 11.96058 | 36842 ft | 431 kts | 185° |
| 2026-05-06 14:30 | 52.80512 | 11.96414 | 36849 ft | 433 kts | 179° |
| 2026-05-06 14:31 | 52.74506 | 11.97169 | 36840 ft | 433 kts | 178° |
| 2026-05-06 14:31 | 52.68496 | 11.97969 | 36840 ft | 433 kts | 178° |
| 2026-05-06 14:32 | 52.62490 | 11.98730 | 36841 ft | 433 kts | 179° |
| 2026-05-06 14:32 | 52.56528 | 11.99457 | 36843 ft | 432 kts | 179° |
| 2026-05-06 14:33 | 52.50533 | 12.00184 | 36842 ft | 432 kts | 179° |
| 2026-05-06 14:33 | 52.44541 | 12.00906 | 36833 ft | 431 kts | 179° |
| 2026-05-06 14:34 | 52.38559 | 12.01644 | 36825 ft | 431 kts | 179° |
| 2026-05-06 14:34 | 52.32626 | 12.02373 | 36827 ft | 430 kts | 179° |
| 2026-05-06 14:35 | 52.26655 | 12.03105 | 36824 ft | 430 kts | 179° |
| 2026-05-06 14:35 | 52.20685 | 12.03830 | 36825 ft | 430 kts | 179° |
| 2026-05-06 14:36 | 52.14717 | 12.04544 | 36823 ft | 430 kts | 179° |
| 2026-05-06 14:36 | 52.08759 | 12.05258 | 36819 ft | 429 kts | 179° |
| 2026-05-06 14:37 | 52.02839 | 12.05981 | 36821 ft | 429 kts | 179° |
| 2026-05-06 14:37 | 51.96884 | 12.06699 | 36813 ft | 429 kts | 179° |
| 2026-05-06 14:38 | 51.90926 | 12.07407 | 36806 ft | 429 kts | 179° |
| 2026-05-06 14:38 | 51.84968 | 12.08114 | 36802 ft | 429 kts | 179° |
| 2026-05-06 14:39 | 51.79051 | 12.08820 | 36796 ft | 429 kts | 179° |
| 2026-05-06 14:39 | 51.73088 | 12.09535 | 36798 ft | 430 kts | 179° |
| 2026-05-06 14:40 | 51.67122 | 12.10244 | 36796 ft | 430 kts | 179° |
| 2026-05-06 14:40 | 51.61159 | 12.10946 | 36794 ft | 430 kts | 179° |
| 2026-05-06 14:41 | 51.55200 | 12.11638 | 36799 ft | 429 kts | 179° |
| 2026-05-06 14:41 | 51.49282 | 12.12331 | 36797 ft | 429 kts | 179° |
| 2026-05-06 14:42 | 51.43337 | 12.13036 | 36801 ft | 428 kts | 179° |
| 2026-05-06 14:42 | 51.37401 | 12.13724 | 36802 ft | 427 kts | 179° |
| 2026-05-06 14:43 | 51.31471 | 12.14417 | 36806 ft | 427 kts | 179° |
| 2026-05-06 14:43 | 51.25551 | 12.15105 | 36796 ft | 426 kts | 179° |
| 2026-05-06 14:44 | 51.19646 | 12.15786 | 36799 ft | 425 kts | 179° |
| 2026-05-06 14:45 | 51.10842 | 12.16806 | 36798 ft | 425 kts | 179° |
| 2026-05-06 14:45 | 51.04948 | 12.17490 | 36797 ft | 424 kts | 179° |
| 2026-05-06 14:46 | 50.99067 | 12.18166 | 36800 ft | 424 kts | 179° |
| 2026-05-06 14:46 | 50.93189 | 12.18839 | 36797 ft | 423 kts | 179° |
| 2026-05-06 14:47 | 50.87314 | 12.19507 | 36792 ft | 423 kts | 179° |
| 2026-05-06 14:47 | 50.81436 | 12.20173 | 36788 ft | 423 kts | 179° |
| 2026-05-06 14:48 | 50.75595 | 12.20839 | 36781 ft | 424 kts | 179° |
| 2026-05-06 14:48 | 50.69719 | 12.21507 | 36780 ft | 424 kts | 179° |
| 2026-05-06 14:49 | 50.63835 | 12.22182 | 36780 ft | 424 kts | 179° |
| 2026-05-06 14:49 | 50.57949 | 12.22845 | 36781 ft | 424 kts | 179° |
| 2026-05-06 14:50 | 50.52064 | 12.23497 | 36786 ft | 424 kts | 179° |
| 2026-05-06 14:50 | 50.46212 | 12.24159 | 36790 ft | 424 kts | 179° |
| 2026-05-06 14:51 | 50.40322 | 12.24817 | 36789 ft | 424 kts | 179° |
| 2026-05-06 14:51 | 50.37377 | 12.25147 | 36384 ft | 424 kts | 179° |
| 2026-05-06 14:51 | 50.34446 | 12.25473 | 35914 ft | 422 kts | 180° |
| 2026-05-06 14:51 | 50.31524 | 12.25797 | 35464 ft | 420 kts | 180° |
| 2026-05-06 14:52 | 50.28612 | 12.26123 | 35018 ft | 419 kts | 180° |
| 2026-05-06 14:52 | 50.25711 | 12.26449 | 34583 ft | 418 kts | 180° |
| 2026-05-06 14:52 | 50.22814 | 12.26775 | 34158 ft | 417 kts | 180° |
| 2026-05-06 14:52 | 50.19929 | 12.27099 | 33722 ft | 416 kts | 181° |
| 2026-05-06 14:53 | 50.17044 | 12.27419 | 33225 ft | 415 kts | 181° |
| 2026-05-06 14:53 | 50.14162 | 12.27735 | 32728 ft | 415 kts | 180° |
| 2026-05-06 14:53 | 50.11274 | 12.28048 | 32254 ft | 416 kts | 180° |
| 2026-05-06 14:53 | 50.08422 | 12.28360 | 31784 ft | 417 kts | 180° |
| 2026-05-06 14:54 | 50.05524 | 12.28684 | 31317 ft | 418 kts | 180° |
| 2026-05-06 14:54 | 50.02618 | 12.29006 | 30861 ft | 419 kts | 180° |
| 2026-05-06 14:54 | 49.99707 | 12.29326 | 30410 ft | 420 kts | 180° |
| 2026-05-06 14:54 | 49.96792 | 12.29646 | 29969 ft | 420 kts | 180° |
| 2026-05-06 14:55 | 49.93871 | 12.29969 | 29468 ft | 421 kts | 180° |
| 2026-05-06 14:55 | 49.90942 | 12.30294 | 28950 ft | 422 kts | 180° |
| 2026-05-06 14:55 | 49.88026 | 12.30617 | 28447 ft | 420 kts | 180° |
| 2026-05-06 14:55 | 49.85111 | 12.30937 | 27953 ft | 418 kts | 180° |
| 2026-05-06 14:56 | 49.82224 | 12.31250 | 27471 ft | 415 kts | 180° |
| 2026-05-06 14:56 | 49.79390 | 12.31556 | 26995 ft | 412 kts | 180° |
| 2026-05-06 14:56 | 49.76544 | 12.31936 | 26744 ft | 412 kts | 176° |
| 2026-05-06 14:56 | 49.73737 | 12.32895 | 26760 ft | 416 kts | 168° |
| 2026-05-06 14:57 | 49.71019 | 12.34509 | 26760 ft | 422 kts | 159° |
| 2026-05-06 14:57 | 49.68456 | 12.36790 | 26760 ft | 429 kts | 151° |
| 2026-05-06 14:57 | 49.66064 | 12.39563 | 26763 ft | 431 kts | 148° |
| 2026-05-06 14:57 | 49.63680 | 12.42368 | 26773 ft | 431 kts | 148° |
| 2026-05-06 14:58 | 49.61292 | 12.45154 | 26767 ft | 431 kts | 149° |
| 2026-05-06 14:58 | 49.58807 | 12.47667 | 26749 ft | 422 kts | 160° |
| 2026-05-06 14:58 | 49.56069 | 12.49093 | 26757 ft | 412 kts | 174° |
| 2026-05-06 14:58 | 49.53280 | 12.49336 | 26761 ft | 404 kts | 188° |
| 2026-05-06 14:59 | 49.50562 | 12.48445 | 26756 ft | 398 kts | 202° |
| 2026-05-06 14:59 | 49.47996 | 12.46841 | 26758 ft | 398 kts | 204° |
| 2026-05-06 14:59 | 49.45442 | 12.45210 | 26762 ft | 397 kts | 204° |
| 2026-05-06 14:59 | 49.42890 | 12.43582 | 26753 ft | 397 kts | 204° |
| 2026-05-06 15:00 | 49.40336 | 12.41953 | 26764 ft | 397 kts | 204° |
| 2026-05-06 15:00 | 49.37784 | 12.40328 | 26756 ft | 397 kts | 204° |
| 2026-05-06 15:00 | 49.35232 | 12.38705 | 26757 ft | 397 kts | 204° |
| 2026-05-06 15:00 | 49.32682 | 12.37085 | 26763 ft | 397 kts | 204° |
| 2026-05-06 15:01 | 49.30135 | 12.35462 | 26750 ft | 396 kts | 204° |
| 2026-05-06 15:01 | 49.27641 | 12.33876 | 26271 ft | 391 kts | 204° |
| 2026-05-06 15:01 | 49.25140 | 12.32293 | 25580 ft | 387 kts | 204° |
| 2026-05-06 15:01 | 49.22656 | 12.30730 | 24905 ft | 384 kts | 204° |
| 2026-05-06 15:02 | 49.20199 | 12.29187 | 24235 ft | 380 kts | 203° |
| 2026-05-06 15:02 | 49.17760 | 12.27654 | 23575 ft | 377 kts | 203° |
| 2026-05-06 15:02 | 49.15341 | 12.26132 | 22877 ft | 374 kts | 203° |
| 2026-05-06 15:02 | 49.12947 | 12.24624 | 22120 ft | 371 kts | 203° |
| 2026-05-06 15:03 | 49.10568 | 12.23121 | 21386 ft | 368 kts | 203° |
| 2026-05-06 15:03 | 49.08210 | 12.21630 | 20679 ft | 366 kts | 203° |
| 2026-05-06 15:03 | 49.05866 | 12.20155 | 19981 ft | 363 kts | 203° |
| 2026-05-06 15:03 | 49.03568 | 12.18715 | 19321 ft | 361 kts | 203° |
| 2026-05-06 15:04 | 49.01252 | 12.17266 | 18653 ft | 359 kts | 203° |
| 2026-05-06 15:04 | 48.98943 | 12.15821 | 18012 ft | 357 kts | 204° |
| 2026-05-06 15:04 | 48.96649 | 12.14388 | 17284 ft | 355 kts | 203° |
| 2026-05-06 15:04 | 48.94369 | 12.12966 | 16598 ft | 352 kts | 204° |
| 2026-05-06 15:05 | 48.92110 | 12.11561 | 15912 ft | 350 kts | 204° |
| 2026-05-06 15:05 | 48.89867 | 12.10167 | 15227 ft | 347 kts | 204° |
| 2026-05-06 15:05 | 48.87637 | 12.08781 | 14572 ft | 345 kts | 204° |
| 2026-05-06 15:05 | 48.85428 | 12.07407 | 13908 ft | 342 kts | 204° |
| 2026-05-06 15:06 | 48.83256 | 12.06057 | 13242 ft | 340 kts | 204° |
| 2026-05-06 15:06 | 48.81073 | 12.04705 | 12550 ft | 338 kts | 203° |
| 2026-05-06 15:06 | 48.78907 | 12.03361 | 11879 ft | 335 kts | 203° |
| 2026-05-06 15:06 | 48.76753 | 12.02021 | 11206 ft | 333 kts | 203° |
| 2026-05-06 15:07 | 48.74618 | 12.00693 | 10832 ft | 332 kts | 202° |
| 2026-05-06 15:07 | 48.72471 | 11.99363 | 10729 ft | 334 kts | 202° |
| 2026-05-06 15:07 | 48.70318 | 11.98033 | 10752 ft | 335 kts | 202° |
| 2026-05-06 15:07 | 48.68161 | 11.96699 | 10745 ft | 335 kts | 202° |
| 2026-05-06 15:08 | 48.66003 | 11.95365 | 10750 ft | 336 kts | 202° |
| 2026-05-06 15:08 | 48.63842 | 11.94030 | 10745 ft | 335 kts | 202° |
| 2026-05-06 15:08 | 48.61766 | 11.92751 | 10582 ft | 312 kts | 202° |
| 2026-05-06 15:08 | 48.59853 | 11.91580 | 10406 ft | 282 kts | 202° |
| 2026-05-06 15:09 | 48.58126 | 11.90519 | 10271 ft | 255 kts | 202° |
| 2026-05-06 15:09 | 48.56511 | 11.89647 | 9888 ft | 241 kts | 188° |
| 2026-05-06 15:09 | 48.54878 | 11.89877 | 9326 ft | 237 kts | 160° |
| 2026-05-06 15:09 | 48.53559 | 11.91366 | 8652 ft | 243 kts | 129° |
| 2026-05-06 15:10 | 48.52890 | 11.93729 | 8170 ft | 248 kts | 107° |
| 2026-05-06 15:10 | 48.52624 | 11.96293 | 7781 ft | 248 kts | 90° |
| 2026-05-06 15:10 | 48.52785 | 11.98882 | 7342 ft | 248 kts | 85° |
| 2026-05-06 15:10 | 48.52990 | 12.01426 | 6944 ft | 247 kts | 84° |
| 2026-05-06 15:11 | 48.53197 | 12.03979 | 6556 ft | 244 kts | 84° |
| 2026-05-06 15:11 | 48.53398 | 12.06512 | 6176 ft | 242 kts | 84° |
| 2026-05-06 15:11 | 48.53593 | 12.09021 | 5781 ft | 239 kts | 84° |
| 2026-05-06 15:11 | 48.53780 | 12.11499 | 5372 ft | 237 kts | 84° |
| 2026-05-06 15:12 | 48.53957 | 12.13955 | 5002 ft | 234 kts | 84° |
| 2026-05-06 15:12 | 48.54128 | 12.16392 | 4961 ft | 234 kts | 85° |
| 2026-05-06 15:12 | 48.54299 | 12.18842 | 4964 ft | 235 kts | 85° |
| 2026-05-06 15:12 | 48.54469 | 12.21267 | 4963 ft | 236 kts | 84° |
| 2026-05-06 15:13 | 48.54640 | 12.23728 | 4958 ft | 236 kts | 85° |
| 2026-05-06 15:13 | 48.54818 | 12.26195 | 4961 ft | 237 kts | 85° |
| 2026-05-06 15:13 | 48.54969 | 12.28665 | 4952 ft | 236 kts | 91° |
| 2026-05-06 15:13 | 48.54514 | 12.30991 | 4949 ft | 234 kts | 123° |
| 2026-05-06 15:14 | 48.53361 | 12.32698 | 4959 ft | 233 kts | 142° |
| 2026-05-06 15:14 | 48.52016 | 12.34047 | 4949 ft | 233 kts | 156° |
| 2026-05-06 15:14 | 48.50427 | 12.34356 | 4949 ft | 235 kts | 188° |
| 2026-05-06 15:14 | 48.48901 | 12.33538 | 4824 ft | 231 kts | 202° |
| 2026-05-06 15:15 | 48.47443 | 12.32482 | 4344 ft | 234 kts | 205° |
| 2026-05-06 15:15 | 48.45982 | 12.31400 | 3970 ft | 233 kts | 205° |
| 2026-05-06 15:15 | 48.44515 | 12.30315 | 3954 ft | 237 kts | 204° |
| 2026-05-06 15:15 | 48.43054 | 12.29230 | 3953 ft | 238 kts | 205° |
| 2026-05-06 15:16 | 48.41740 | 12.27726 | 3950 ft | 241 kts | 229° |
| 2026-05-06 15:16 | 48.40753 | 12.25686 | 3959 ft | 241 kts | 234° |
| 2026-05-06 15:16 | 48.39808 | 12.23593 | 3967 ft | 242 kts | 234° |
| 2026-05-06 15:16 | 48.38978 | 12.21402 | 3957 ft | 242 kts | 250° |
| 2026-05-06 15:17 | 48.38760 | 12.18894 | 3976 ft | 243 kts | 269° |
| 2026-05-06 15:17 | 48.38754 | 12.16373 | 3968 ft | 235 kts | 270° |
| 2026-05-06 15:17 | 48.38751 | 12.13976 | 3975 ft | 226 kts | 270° |
| 2026-05-06 15:17 | 48.38801 | 12.11635 | 3975 ft | 223 kts | 269° |
| 2026-05-06 15:18 | 48.38716 | 12.09311 | 3982 ft | 222 kts | 264° |
| 2026-05-06 15:18 | 48.38556 | 12.07007 | 3989 ft | 221 kts | 263° |
| 2026-05-06 15:18 | 48.38384 | 12.04704 | 3992 ft | 221 kts | 263° |
| 2026-05-06 15:18 | 48.38214 | 12.02428 | 3988 ft | 210 kts | 263° |
| 2026-05-06 15:19 | 48.38058 | 12.00330 | 3840 ft | 196 kts | 263° |
| 2026-05-06 15:19 | 48.37911 | 11.98354 | 3617 ft | 191 kts | 263° |
| 2026-05-06 15:19 | 48.37765 | 11.96401 | 3401 ft | 182 kts | 264° |
| 2026-05-06 15:19 | 48.37629 | 11.94597 | 3162 ft | 167 kts | 263° |
| 2026-05-06 15:20 | 48.37503 | 11.92917 | 2960 ft | 158 kts | 264° |
| 2026-05-06 15:20 | 48.37381 | 11.91292 | 2748 ft | 155 kts | 264° |
| 2026-05-06 15:20 | 48.37260 | 11.89686 | 2541 ft | 154 kts | 264° |
| 2026-05-06 15:20 | 48.37139 | 11.88093 | 2338 ft | 152 kts | 264° |
| 2026-05-06 15:21 | 48.37019 | 11.86524 | 2101 ft | 150 kts | 264° |
| 2026-05-06 15:21 | 48.36906 | 11.84988 | 1892 ft | 147 kts | 265° |
| 2026-05-06 15:21 | 48.36793 | 11.83491 | 1711 ft | 146 kts | 263° |
| 2026-05-06 15:21 | 48.36678 | 11.81993 | 1522 ft | 144 kts | 264° |
| 2026-05-06 15:22 | 48.36572 | 11.80607 | 1486 ft | 115 kts | 264° |
| 2026-05-06 15:22 | 48.36503 | 11.79669 | 1483 ft | 66 kts | 262° |
| 2026-05-06 15:22 | 48.36467 | 11.79231 | 1485 ft | 36 kts | 264° |
| 2026-05-06 15:22 | 48.36390 | 11.78888 | 1479 ft | 35 kts | 233° |
| 2026-05-06 15:23 | 48.36317 | 11.78740 | 1482 ft | 0 kts | 233° |
| 2026-05-06 15:23 | 48.36317 | 11.78739 | 1482 ft | 1 kts | 233° |
| 2026-05-06 15:23 | 48.36290 | 11.78685 | 1478 ft | 13 kts | 233° |
| 2026-05-06 15:23 | 48.36209 | 11.78526 | 1482 ft | 22 kts | 225° |
| 2026-05-06 15:24 | 48.36066 | 11.78491 | 1484 ft | 21 kts | 163° |
| 2026-05-06 15:24 | 48.36042 | 11.78644 | 1485 ft | 15 kts | 85° |
| 2026-05-06 15:24 | 48.36054 | 11.78817 | 1480 ft | 20 kts | 83° |
| 2026-05-06 15:24 | 48.36073 | 11.79057 | 1485 ft | 24 kts | 83° |
| 2026-05-06 15:25 | 48.36083 | 11.79281 | 1482 ft | 17 kts | 111° |
| 2026-05-06 15:25 | 48.35987 | 11.79333 | 1486 ft | 1 kts | 173° |
| 2026-05-06 15:26 | 48.35984 | 11.79334 | 1486 ft | 3 kts | 173° |
| 2026-05-06 15:26 | 48.35928 | 11.79357 | 1474 ft | 14 kts | 148° |
| 2026-05-06 15:27 | 48.35833 | 11.79454 | 1483 ft | 18 kts | 172° |
| 2026-05-06 15:27 | 48.35734 | 11.79475 | 1478 ft | 15 kts | 172° |
| 2026-05-06 15:27 | 48.35619 | 11.79491 | 1486 ft | 18 kts | 175° |
| 2026-05-06 15:27 | 48.35490 | 11.79515 | 1480 ft | 20 kts | 173° |
| 2026-05-06 15:28 | 48.35346 | 11.79539 | 1471 ft | 22 kts | 174° |
| 2026-05-06 15:28 | 48.35187 | 11.79567 | 1474 ft | 24 kts | 173° |
| 2026-05-06 15:28 | 48.35098 | 11.79554 | 1473 ft | 11 kts | 236° |
| 2026-05-06 15:28 | 48.35108 | 11.79508 | 1481 ft | 1 kts | 303° |
| 2026-05-06 15:29 | 48.35118 | 11.79461 | 1479 ft | 8 kts | 278° |
| 2026-05-06 15:29 | 48.35113 | 11.79367 | 1479 ft | 6 kts | 264° |